createdAt,value
2019-04-16T00:00:11.877Z,61.70
2019-04-16T00:00:47.327Z,61.88
2019-04-16T00:01:21.326Z,61.93
2019-04-16T00:02:12.218Z,61.91
2019-04-16T00:02:52.278Z,62.02
2019-04-16T00:03:23.872Z,61.92
2019-04-16T00:03:57.069Z,61.91
2019-04-16T00:04:37.231Z,61.91
2019-04-16T00:05:13.009Z,62.14
2019-04-16T00:05:58.655Z,62.13
2019-04-16T00:06:32.570Z,62.26
2019-04-16T00:07:05.835Z,62.57
2019-04-16T00:07:41.492Z,62.57
2019-04-16T00:08:27.874Z,62.41
2019-04-16T00:08:54.162Z,62.33
2019-04-16T00:09:31.285Z,62.34
2019-04-16T00:10:23.815Z,62.16
2019-04-16T00:10:57.901Z,62.07
2019-04-16T00:11:48.718Z,62.15
2019-04-16T00:12:21.812Z,62.15
2019-04-16T00:12:54.890Z,61.97
2019-04-16T00:13:30.880Z,62.00
2019-04-16T00:14:08.505Z,62.06
2019-04-16T00:14:42.298Z,62.05
2019-04-16T00:15:13.477Z,61.96
2019-04-16T00:15:44.762Z,61.95
2019-04-16T00:16:15.960Z,61.92
2019-04-16T00:16:47.149Z,61.96
2019-04-16T00:17:18.331Z,61.95
2019-04-16T00:17:49.523Z,61.96
2019-04-16T00:18:20.905Z,61.85
2019-04-16T00:18:57.983Z,61.92
2019-04-16T00:19:25.155Z,61.93
2019-04-16T00:19:56.349Z,61.75
2019-04-16T00:20:27.525Z,61.93
2019-04-16T00:21:00.640Z,61.82
2019-04-16T00:21:41.239Z,61.77
2019-04-16T00:22:23.529Z,61.86
2019-04-16T00:23:03.697Z,61.86
2019-04-16T00:23:53.300Z,61.75
2019-04-16T00:24:26.366Z,62.00
2019-04-16T00:24:57.592Z,61.90
2019-04-16T00:25:28.876Z,61.85
2019-04-16T00:26:00.191Z,62.06
2019-04-16T00:26:31.473Z,62.13
2019-04-16T00:27:02.923Z,62.25
2019-04-16T00:27:34.161Z,62.06
2019-04-16T00:28:05.374Z,62.18
2019-04-16T00:28:36.528Z,62.31
2019-04-16T00:29:08.848Z,62.27
2019-04-16T00:29:40.060Z,62.31
2019-04-16T00:30:12.203Z,62.58
2019-04-16T00:30:43.398Z,62.67
2019-04-16T00:31:14.678Z,62.62
2019-04-16T00:31:47.767Z,62.71
2019-04-16T00:32:20.902Z,62.56
2019-04-16T00:32:52.066Z,62.55
2019-04-16T00:33:23.287Z,62.59
2019-04-16T00:33:54.443Z,62.49
2019-04-16T00:34:25.658Z,62.78
2019-04-16T00:34:56.898Z,62.60
2019-04-16T00:35:28.146Z,62.57
2019-04-16T00:35:59.374Z,62.57
2019-04-16T00:36:30.613Z,62.66
2019-04-16T00:37:01.852Z,62.62
2019-04-16T00:37:33.109Z,62.66
2019-04-16T00:38:04.360Z,62.81
2019-04-16T00:38:40.980Z,62.80
2019-04-16T00:39:09.148Z,63.17
2019-04-16T00:39:41.847Z,63.17
2019-04-16T00:40:13.096Z,62.99
2019-04-16T00:40:44.352Z,62.70
2019-04-16T00:41:15.574Z,62.70
2019-04-16T00:41:46.780Z,63.03
2019-04-16T00:42:19.025Z,63.03
2019-04-16T00:42:50.289Z,62.99
2019-04-16T00:43:21.528Z,62.99
2019-04-16T00:43:52.764Z,63.05
2019-04-16T00:44:24.017Z,63.06
2019-04-16T00:44:55.575Z,63.00
2019-04-16T00:45:26.933Z,63.00
2019-04-16T00:45:58.275Z,63.05
2019-04-16T00:46:29.481Z,63.10
2019-04-16T00:47:00.706Z,63.13
2019-04-16T00:47:32.052Z,63.21
2019-04-16T00:48:03.290Z,63.13
2019-04-16T00:48:34.557Z,63.03
2019-04-16T00:49:05.799Z,63.10
2019-04-16T00:49:37.979Z,63.44
2019-04-16T00:50:09.489Z,63.44
2019-04-16T00:50:40.743Z,63.49
2019-04-16T00:51:11.998Z,63.54
2019-04-16T00:51:43.226Z,63.60
2019-04-16T00:52:14.389Z,63.60
2019-04-16T00:52:45.601Z,63.82
2019-04-16T00:53:16.768Z,63.57
2019-04-16T00:53:47.993Z,63.57
2019-04-16T00:54:19.143Z,63.68
2019-04-16T00:54:50.358Z,63.84
2019-04-16T00:55:21.526Z,63.78
2019-04-16T00:55:52.840Z,63.77
2019-04-16T00:56:24.032Z,63.94
2019-04-16T00:56:55.247Z,63.96
2019-04-16T00:57:26.410Z,64.09
2019-04-16T00:57:57.626Z,64.10
2019-04-16T00:58:29.840Z,64.06
2019-04-16T00:59:02.175Z,64.20
2019-04-16T00:59:33.420Z,64.23
2019-04-16T01:00:05.146Z,64.13
2019-04-16T01:00:36.400Z,64.19
2019-04-16T01:01:07.614Z,64.33
2019-04-16T01:01:38.845Z,64.49
2019-04-16T01:02:10.153Z,64.53
2019-04-16T01:02:41.355Z,64.58
2019-04-16T01:03:12.625Z,64.87
2019-04-16T01:03:43.779Z,64.80
2019-04-16T01:04:14.997Z,64.85
2019-04-16T01:04:46.172Z,64.74
2019-04-16T01:05:17.505Z,64.78
2019-04-16T01:05:48.659Z,64.77
2019-04-16T01:06:19.848Z,64.62
2019-04-16T01:06:51.042Z,64.41
2019-04-16T01:07:22.257Z,64.41
2019-04-16T01:07:53.419Z,64.59
2019-04-16T01:08:24.641Z,64.65
2019-04-16T01:08:55.805Z,64.78
2019-04-16T01:09:27.609Z,64.79
2019-04-16T01:09:58.766Z,64.72
2019-04-16T01:10:29.980Z,64.68
2019-04-16T01:11:01.125Z,64.86
2019-04-16T01:11:32.365Z,64.67
2019-04-16T01:12:03.660Z,64.67
2019-04-16T01:12:34.872Z,64.64
2019-04-16T01:13:06.030Z,64.66
2019-04-16T01:13:37.248Z,64.61
2019-04-16T01:14:08.398Z,64.61
2019-04-16T01:14:39.713Z,64.64
2019-04-16T01:15:10.971Z,64.61
2019-04-16T01:15:42.232Z,64.85
2019-04-16T01:16:13.474Z,64.85
2019-04-16T01:16:44.692Z,64.72
2019-04-16T01:17:15.892Z,64.65
2019-04-16T01:17:47.107Z,64.82
2019-04-16T01:18:18.260Z,64.71
2019-04-16T01:18:49.472Z,64.68
2019-04-16T01:19:20.625Z,64.82
2019-04-16T01:19:51.984Z,64.72
2019-04-16T01:20:23.140Z,64.77
2019-04-16T01:20:54.426Z,64.93
2019-04-16T01:21:25.652Z,64.91
2019-04-16T01:21:56.862Z,64.91
2019-04-16T01:22:28.051Z,65.16
2019-04-16T01:22:59.272Z,65.14
2019-04-16T01:23:30.430Z,65.18
2019-04-16T01:24:01.696Z,65.45
2019-04-16T01:24:32.883Z,65.90
2019-04-16T01:25:05.302Z,65.90
2019-04-16T01:25:36.461Z,65.74
2019-04-16T01:26:07.834Z,65.91
2019-04-16T01:26:39.119Z,65.91
2019-04-16T01:27:10.330Z,65.68
2019-04-16T01:27:43.670Z,65.68
2019-04-16T01:28:33.155Z,65.64
2019-04-16T01:29:06.209Z,66.18
2019-04-16T01:29:37.423Z,66.18
2019-04-16T01:30:10.572Z,66.19
2019-04-16T01:30:46.500Z,66.18
2019-04-16T01:31:17.659Z,66.18
2019-04-16T01:31:57.656Z,66.31
2019-04-16T01:32:47.159Z,66.60
2019-04-16T01:33:23.138Z,66.60
2019-04-16T01:33:57.181Z,67.09
2019-04-16T01:34:34.378Z,66.58
2019-04-16T01:35:18.708Z,66.58
2019-04-16T01:36:00.261Z,67.01
2019-04-16T01:36:36.230Z,67.07
2019-04-16T01:37:17.995Z,67.07
2019-04-16T01:38:07.596Z,67.06
2019-04-16T01:38:52.722Z,66.78
2019-04-16T01:39:28.496Z,66.78
2019-04-16T01:40:01.423Z,66.77
2019-04-16T01:40:34.506Z,66.77
2019-04-16T01:41:07.594Z,66.75
2019-04-16T01:41:38.802Z,66.86
2019-04-16T01:42:09.981Z,66.82
2019-04-16T01:42:41.358Z,66.81
2019-04-16T01:43:12.598Z,67.05
2019-04-16T01:43:43.797Z,67.10
2019-04-16T01:44:14.959Z,67.25
2019-04-16T01:44:46.174Z,67.30
2019-04-16T01:45:17.333Z,67.44
2019-04-16T01:45:48.541Z,67.35
2019-04-16T01:46:19.709Z,67.26
2019-04-16T01:46:50.924Z,67.25
2019-04-16T01:47:22.098Z,67.25
2019-04-16T01:47:53.318Z,67.11
2019-04-16T01:48:24.495Z,67.44
2019-04-16T01:48:55.713Z,67.56
2019-04-16T01:49:26.879Z,67.46
2019-04-16T01:49:58.103Z,67.46
2019-04-16T01:50:29.263Z,67.66
2019-04-16T01:51:00.568Z,67.88
2019-04-16T01:51:31.729Z,67.88
2019-04-16T01:52:02.940Z,67.87
2019-04-16T01:52:34.149Z,67.79
2019-04-16T01:53:05.384Z,67.72
2019-04-16T01:53:36.581Z,67.64
2019-04-16T01:54:08.866Z,67.80
2019-04-16T01:54:40.281Z,67.80
2019-04-16T01:55:11.810Z,67.71
2019-04-16T01:55:43.066Z,67.86
2019-04-16T01:56:14.330Z,67.78
2019-04-16T01:56:45.586Z,67.78
2019-04-16T01:57:16.854Z,67.95
2019-04-16T01:57:48.104Z,68.27
2019-04-16T01:58:19.363Z,68.27
2019-04-16T01:58:50.604Z,68.44
2019-04-16T01:59:21.984Z,68.44
2019-04-16T01:59:53.218Z,68.33
2019-04-16T02:00:24.490Z,68.36
2019-04-16T02:00:55.742Z,68.56
2019-04-16T02:01:26.985Z,68.75
2019-04-16T02:01:58.254Z,68.75
2019-04-16T02:02:29.507Z,68.82
2019-04-16T02:03:00.752Z,68.91
2019-04-16T02:03:31.998Z,68.97
2019-04-16T02:04:03.213Z,68.84
2019-04-16T02:04:34.371Z,68.69
2019-04-16T02:05:05.677Z,68.67
2019-04-16T02:05:36.844Z,68.55
2019-04-16T02:06:08.242Z,68.59
2019-04-16T02:06:39.402Z,68.65
2019-04-16T02:07:10.587Z,68.78
2019-04-16T02:07:41.935Z,69.17
2019-04-16T02:08:13.190Z,69.17
2019-04-16T02:08:44.341Z,69.00
2019-04-16T02:09:22.242Z,69.02
2019-04-16T02:09:48.608Z,69.09
2019-04-16T02:10:19.756Z,69.15
2019-04-16T02:10:50.968Z,69.31
2019-04-16T02:11:22.126Z,69.16
2019-04-16T02:11:53.331Z,69.18
2019-04-16T02:12:24.478Z,69.47
2019-04-16T02:12:55.692Z,69.51
2019-04-16T02:13:26.841Z,69.55
2019-04-16T02:13:58.051Z,69.73
2019-04-16T02:14:29.235Z,69.57
2019-04-16T02:15:00.485Z,69.70
2019-04-16T02:15:31.941Z,69.46
2019-04-16T02:16:03.155Z,69.36
2019-04-16T02:16:34.343Z,69.36
2019-04-16T02:17:05.631Z,69.19
2019-04-16T02:17:36.786Z,69.11
2019-04-16T02:18:08.254Z,69.54
2019-04-16T02:18:39.408Z,69.40
2019-04-16T02:19:10.616Z,69.37
2019-04-16T02:19:41.798Z,69.37
2019-04-16T02:20:13.023Z,69.41
2019-04-16T02:20:44.186Z,69.34
2019-04-16T02:21:15.408Z,69.34
2019-04-16T02:21:46.584Z,69.37
2019-04-16T02:22:17.799Z,69.40
2019-04-16T02:22:48.956Z,69.17
2019-04-16T02:23:20.171Z,69.11
2019-04-16T02:23:51.331Z,69.35
2019-04-16T02:24:22.661Z,69.40
2019-04-16T02:24:53.857Z,69.18
2019-04-16T02:25:25.043Z,69.18
2019-04-16T02:25:56.253Z,69.41
2019-04-16T02:26:27.441Z,69.51
2019-04-16T02:26:58.625Z,69.58
2019-04-16T02:27:29.823Z,69.66
2019-04-16T02:28:01.019Z,69.64
2019-04-16T02:28:32.210Z,69.67
2019-04-16T02:29:03.395Z,69.75
2019-04-16T02:29:34.590Z,69.75
2019-04-16T02:30:06.036Z,69.79
2019-04-16T02:30:39.529Z,69.69
2019-04-16T02:31:15.854Z,69.63
2019-04-16T02:31:43.624Z,69.74
2019-04-16T02:32:14.781Z,69.77
2019-04-16T02:32:46.014Z,69.90
2019-04-16T02:33:18.189Z,70.18
2019-04-16T02:33:50.661Z,70.18
2019-04-16T02:34:21.859Z,69.75
2019-04-16T02:34:53.154Z,70.19
2019-04-16T02:35:24.384Z,70.19
2019-04-16T02:35:55.572Z,69.92
2019-04-16T02:36:26.757Z,69.80
2019-04-16T02:37:02.494Z,70.03
2019-04-16T02:37:35.520Z,70.15
2019-04-16T02:38:11.124Z,70.08
2019-04-16T02:38:37.162Z,70.00
2019-04-16T02:39:08.318Z,70.09
2019-04-16T02:39:48.581Z,70.11
2019-04-16T02:40:17.022Z,70.09
2019-04-16T02:40:51.599Z,69.90
2019-04-16T02:41:23.236Z,69.86
2019-04-16T02:41:56.826Z,69.88
2019-04-16T02:42:30.445Z,70.01
2019-04-16T02:43:03.944Z,69.82
2019-04-16T02:43:31.540Z,69.82
2019-04-16T02:44:03.274Z,69.60
2019-04-16T02:44:34.435Z,69.60
2019-04-16T02:45:05.758Z,69.50
2019-04-16T02:45:36.956Z,69.50
2019-04-16T02:46:08.505Z,69.28
2019-04-16T02:46:40.753Z,69.30
2019-04-16T02:47:12.009Z,69.30
2019-04-16T02:47:43.247Z,69.25
2019-04-16T02:48:16.668Z,69.10
2019-04-16T02:48:51.473Z,69.10
2019-04-16T02:49:24.453Z,69.02
2019-04-16T02:49:56.802Z,69.06
2019-04-16T02:50:32.258Z,69.02
2019-04-16T02:51:08.710Z,68.98
2019-04-16T02:51:41.838Z,69.02
2019-04-16T02:52:16.451Z,68.90
2019-04-16T02:52:55.646Z,69.01
2019-04-16T02:53:29.712Z,69.02
2019-04-16T02:54:02.773Z,68.97
2019-04-16T02:54:35.903Z,68.97
2019-04-16T02:55:20.703Z,68.74
2019-04-16T02:55:53.814Z,68.61
2019-04-16T02:56:24.997Z,68.64
2019-04-16T02:56:59.102Z,68.64
2019-04-16T02:57:45.370Z,68.64
2019-04-16T02:58:21.407Z,68.64
2019-04-16T02:59:00.510Z,68.37
2019-04-16T02:59:33.668Z,68.10
2019-04-16T03:00:06.819Z,68.10
2019-04-16T03:00:38.521Z,68.22
2019-04-16T03:01:28.093Z,68.22
2019-04-16T03:02:17.457Z,68.46
2019-04-16T03:02:56.400Z,68.06
2019-04-16T03:03:32.145Z,68.06
2019-04-16T03:04:14.203Z,68.35
2019-04-16T03:04:58.040Z,68.20
2019-04-16T03:05:29.014Z,68.27
2019-04-16T03:06:01.881Z,68.27
2019-04-16T03:06:33.383Z,68.42
2019-04-16T03:07:04.649Z,68.21
2019-04-16T03:07:35.895Z,68.00
2019-04-16T03:08:07.114Z,68.28
2019-04-16T03:08:38.443Z,68.28
2019-04-16T03:09:09.976Z,67.96
2019-04-16T03:09:41.532Z,67.87
2019-04-16T03:10:13.914Z,67.84
2019-04-16T03:10:45.421Z,67.88
2019-04-16T03:11:17.994Z,67.94
2019-04-16T03:11:49.365Z,67.95
2019-04-16T03:12:21.527Z,67.89
2019-04-16T03:12:52.980Z,67.83
2019-04-16T03:13:24.822Z,67.76
2019-04-16T03:13:59.242Z,67.67
2019-04-16T03:14:30.131Z,67.64
2019-04-16T03:15:02.795Z,67.62
2019-04-16T03:15:35.978Z,67.61
2019-04-16T03:16:09.655Z,67.55
2019-04-16T03:16:55.536Z,67.57
2019-04-16T03:17:42.914Z,67.63
2019-04-16T03:18:16.230Z,67.46
2019-04-16T03:19:04.173Z,67.48
2019-04-16T03:19:43.181Z,67.45
2019-04-16T03:20:16.529Z,67.55
2019-04-16T03:20:47.776Z,67.66
2019-04-16T03:21:19.021Z,67.73
2019-04-16T03:21:50.267Z,67.65
2019-04-16T03:22:21.483Z,67.64
2019-04-16T03:22:52.669Z,67.70
2019-04-16T03:23:23.906Z,67.64
2019-04-16T03:23:55.146Z,67.67
2019-04-16T03:24:26.394Z,67.73
2019-04-16T03:24:57.744Z,67.76
2019-04-16T03:25:29.024Z,67.73
2019-04-16T03:26:00.261Z,67.73
2019-04-16T03:26:31.494Z,67.74
2019-04-16T03:27:04.567Z,67.69
2019-04-16T03:27:35.858Z,67.69
2019-04-16T03:28:07.040Z,67.70
2019-04-16T03:28:38.390Z,67.77
2019-04-16T03:29:10.652Z,67.77
2019-04-16T03:29:41.992Z,67.60
2019-04-16T03:30:13.650Z,67.63
2019-04-16T03:30:45.031Z,67.63
2019-04-16T03:31:22.304Z,67.67
2019-04-16T03:31:57.323Z,67.60
2019-04-16T03:32:22.606Z,67.61
2019-04-16T03:32:53.829Z,67.64
2019-04-16T03:33:25.265Z,67.66
2019-04-16T03:33:56.549Z,67.66
2019-04-16T03:34:27.823Z,67.66
2019-04-16T03:34:59.111Z,67.69
2019-04-16T03:35:30.389Z,67.73
2019-04-16T03:36:01.646Z,67.76
2019-04-16T03:36:32.893Z,67.71
2019-04-16T03:37:04.145Z,67.72
2019-04-16T03:37:35.328Z,67.65
2019-04-16T03:38:06.574Z,67.58
2019-04-16T03:38:41.803Z,67.56
2019-04-16T03:39:13.190Z,67.48
2019-04-16T03:39:44.927Z,67.62
2019-04-16T03:40:18.642Z,67.57
2019-04-16T03:40:49.467Z,67.57
2019-04-16T03:41:20.722Z,67.34
2019-04-16T03:41:56.016Z,67.25
2019-04-16T03:42:27.390Z,67.26
2019-04-16T03:42:59.302Z,67.12
2019-04-16T03:43:32.828Z,67.03
2019-04-16T03:44:05.104Z,66.91
2019-04-16T03:44:37.452Z,66.95
2019-04-16T03:45:09.864Z,66.71
2019-04-16T03:45:41.750Z,66.71
2019-04-16T03:46:14.190Z,66.73
2019-04-16T03:46:46.916Z,66.72
2019-04-16T03:47:19.877Z,66.71
2019-04-16T03:47:52.280Z,66.72
2019-04-16T03:48:24.483Z,66.72
2019-04-16T03:48:56.471Z,66.55
2019-04-16T03:49:28.491Z,66.52
2019-04-16T03:50:00.254Z,66.51
2019-04-16T03:50:32.231Z,66.53
2019-04-16T03:51:04.757Z,66.47
2019-04-16T03:51:36.579Z,66.43
2019-04-16T03:52:09.437Z,66.45
2019-04-16T03:52:45.501Z,66.37
2019-04-16T03:53:17.487Z,66.39
2019-04-16T03:53:49.541Z,66.29
2019-04-16T03:54:22.380Z,66.22
2019-04-16T03:54:54.709Z,66.24
2019-04-16T03:55:26.573Z,66.19
2019-04-16T03:55:58.305Z,66.28
2019-04-16T03:56:31.189Z,66.22
2019-04-16T03:57:02.876Z,66.24
2019-04-16T03:57:34.163Z,65.98
2019-04-16T03:58:06.751Z,66.08
2019-04-16T03:58:39.393Z,65.86
2019-04-16T03:59:12.044Z,65.89
2019-04-16T03:59:43.791Z,65.90
2019-04-16T04:00:15.031Z,65.78
2019-04-16T04:00:46.275Z,65.76
2019-04-16T04:01:17.537Z,65.75
2019-04-16T04:01:48.769Z,65.70
2019-04-16T04:02:22.868Z,65.70
2019-04-16T04:02:55.149Z,65.65
2019-04-16T04:03:26.928Z,65.66
2019-04-16T04:03:58.588Z,65.70
2019-04-16T04:04:30.030Z,65.69
2019-04-16T04:05:06.119Z,65.68
2019-04-16T04:05:35.663Z,65.73
2019-04-16T04:06:08.082Z,65.63
2019-04-16T04:06:40.616Z,65.61
2019-04-16T04:07:13.326Z,65.83
2019-04-16T04:07:45.092Z,65.71
2019-04-16T04:08:17.921Z,65.54
2019-04-16T04:08:53.132Z,65.65
2019-04-16T04:09:22.982Z,65.54
2019-04-16T04:09:55.184Z,65.24
2019-04-16T04:10:30.789Z,65.11
2019-04-16T04:10:59.500Z,65.06
2019-04-16T04:11:31.974Z,65.10
2019-04-16T04:12:03.158Z,65.10
2019-04-16T04:12:34.489Z,65.17
2019-04-16T04:13:05.843Z,65.17
2019-04-16T04:13:37.057Z,64.97
2019-04-16T04:14:09.345Z,64.78
2019-04-16T04:14:41.545Z,64.73
2019-04-16T04:15:13.092Z,64.74
2019-04-16T04:15:44.353Z,64.13
2019-04-16T04:16:15.600Z,64.13
2019-04-16T04:16:46.841Z,64.38
2019-04-16T04:17:18.045Z,64.39
2019-04-16T04:17:49.293Z,64.44
2019-04-16T04:18:20.483Z,64.44
2019-04-16T04:18:51.693Z,64.48
2019-04-16T04:19:22.877Z,64.49
2019-04-16T04:19:54.071Z,64.11
2019-04-16T04:20:25.293Z,64.28
2019-04-16T04:20:56.466Z,63.96
2019-04-16T04:21:27.695Z,63.98
2019-04-16T04:21:58.881Z,63.90
2019-04-16T04:22:30.068Z,63.85
2019-04-16T04:23:01.250Z,63.61
2019-04-16T04:23:32.444Z,63.92
2019-04-16T04:24:03.659Z,63.61
2019-04-16T04:24:34.854Z,63.50
2019-04-16T04:25:06.606Z,63.65
2019-04-16T04:25:38.942Z,63.64
2019-04-16T04:26:10.306Z,63.29
2019-04-16T04:26:42.402Z,63.21
2019-04-16T04:27:18.229Z,63.32
2019-04-16T04:27:47.703Z,63.38
2019-04-16T04:28:20.568Z,63.13
2019-04-16T04:28:52.643Z,63.01
2019-04-16T04:29:24.862Z,62.90
2019-04-16T04:29:57.270Z,63.14
2019-04-16T04:30:29.551Z,63.06
2019-04-16T04:31:01.984Z,62.88
2019-04-16T04:31:33.281Z,62.76
2019-04-16T04:32:04.482Z,62.90
2019-04-16T04:32:36.301Z,62.95
2019-04-16T04:33:09.431Z,62.92
2019-04-16T04:33:43.003Z,62.92
2019-04-16T04:34:16.987Z,62.52
2019-04-16T04:34:48.575Z,62.55
2019-04-16T04:35:22.077Z,62.54
2019-04-16T04:35:53.573Z,62.55
2019-04-16T04:36:27.093Z,62.44
2019-04-16T04:36:59.733Z,62.54
2019-04-16T04:37:31.929Z,62.64
2019-04-16T04:38:04.203Z,62.46
2019-04-16T04:38:37.571Z,62.30
2019-04-16T04:39:14.432Z,62.26
2019-04-16T04:39:44.253Z,62.03
2019-04-16T04:40:17.544Z,62.03
2019-04-16T04:40:50.952Z,61.87
2019-04-16T04:41:23.049Z,61.87
2019-04-16T04:41:56.448Z,62.05
2019-04-16T04:42:29.014Z,62.24
2019-04-16T04:43:01.725Z,62.17
2019-04-16T04:43:34.202Z,62.05
2019-04-16T04:44:06.586Z,61.93
2019-04-16T04:44:37.783Z,61.93
2019-04-16T04:45:10.201Z,61.93
2019-04-16T04:45:41.937Z,61.93
2019-04-16T04:46:14.970Z,61.90
2019-04-16T04:46:46.961Z,61.85
2019-04-16T04:47:19.677Z,61.80
2019-04-16T04:47:52.273Z,61.80
2019-04-16T04:48:24.344Z,62.00
2019-04-16T04:48:59.908Z,61.58
2019-04-16T04:49:30.377Z,61.75
2019-04-16T04:50:04.439Z,61.75
2019-04-16T04:50:36.088Z,61.42
2019-04-16T04:51:08.733Z,61.56
2019-04-16T04:51:43.527Z,61.56
2019-04-16T04:52:14.641Z,61.19
2019-04-16T04:52:46.889Z,61.17
2019-04-16T04:53:19.618Z,61.14
2019-04-16T04:53:51.363Z,61.34
2019-04-16T04:54:23.497Z,61.22
2019-04-16T04:54:54.942Z,60.89
2019-04-16T04:55:27.035Z,60.94
2019-04-16T04:55:58.301Z,60.94
2019-04-16T04:56:29.441Z,60.80
2019-04-16T04:57:00.657Z,60.76
2019-04-16T04:57:32.037Z,60.91
2019-04-16T04:58:03.465Z,60.83
2019-04-16T04:58:34.894Z,60.86
2019-04-16T04:59:06.240Z,60.88
2019-04-16T04:59:38.526Z,60.88
2019-04-16T05:00:09.845Z,60.93
2019-04-16T05:00:41.330Z,60.84
2019-04-16T05:01:14.100Z,60.38
2019-04-16T05:01:45.629Z,60.49
2019-04-16T05:02:16.956Z,60.41
2019-04-16T05:02:48.205Z,60.30
2019-04-16T05:03:38.204Z,60.38
2019-04-16T05:04:20.626Z,60.41
2019-04-16T05:04:58.068Z,60.07
2019-04-16T05:05:31.126Z,60.07
2019-04-16T05:06:19.016Z,60.23
2019-04-16T05:06:54.341Z,60.10
2019-04-16T05:07:25.759Z,59.80
2019-04-16T05:07:59.986Z,59.80
2019-04-16T05:08:31.368Z,59.89
2019-04-16T05:09:04.661Z,59.74
2019-04-16T05:09:36.763Z,59.74
2019-04-16T05:10:08.407Z,59.93
2019-04-16T05:10:42.925Z,59.93
2019-04-16T05:11:15.486Z,59.66
2019-04-16T05:11:48.377Z,59.34
2019-04-16T05:12:21.325Z,59.39
2019-04-16T05:12:53.575Z,59.25
2019-04-16T05:13:25.332Z,59.25
2019-04-16T05:13:57.110Z,59.36
2019-04-16T05:14:28.465Z,59.59
2019-04-16T05:14:59.698Z,59.59
2019-04-16T05:15:30.836Z,59.09
2019-04-16T05:16:03.085Z,58.69
2019-04-16T05:16:35.049Z,58.69
2019-04-16T05:17:07.464Z,59.00
2019-04-16T05:17:39.865Z,59.00
2019-04-16T05:18:11.599Z,58.58
2019-04-16T05:18:42.839Z,58.32
2019-04-16T05:19:15.511Z,58.32
2019-04-16T05:19:47.147Z,57.79
2019-04-16T05:20:18.388Z,57.90
2019-04-16T05:20:49.551Z,57.90
2019-04-16T05:21:20.780Z,57.99
2019-04-16T05:21:51.922Z,58.00
2019-04-16T05:22:23.155Z,58.07
2019-04-16T05:22:54.523Z,57.76
2019-04-16T05:23:26.175Z,57.77
2019-04-16T05:23:58.094Z,57.77
2019-04-16T05:24:29.998Z,57.58
2019-04-16T05:25:03.495Z,57.49
2019-04-16T05:25:34.717Z,57.61
2019-04-16T05:26:05.880Z,57.11
2019-04-16T05:26:37.287Z,57.11
2019-04-16T05:27:09.439Z,57.13
2019-04-16T05:27:41.574Z,57.24
2019-04-16T05:28:13.395Z,57.38
2019-04-16T05:28:45.728Z,57.03
2019-04-16T05:29:18.608Z,57.03
2019-04-16T05:29:49.996Z,57.20
2019-04-16T05:30:22.096Z,56.91
2019-04-16T05:30:53.448Z,56.78
2019-04-16T05:31:25.676Z,56.54
2019-04-16T05:31:58.248Z,56.14
2019-04-16T05:32:33.908Z,55.83
2019-04-16T05:33:05.633Z,55.83
2019-04-16T05:33:37.498Z,55.89
2019-04-16T05:34:09.208Z,55.84
2019-04-16T05:34:41.135Z,55.89
2019-04-16T05:35:12.504Z,55.95
2019-04-16T05:35:43.723Z,55.25
2019-04-16T05:36:15.437Z,54.93
2019-04-16T05:36:48.124Z,54.85
2019-04-16T05:37:20.929Z,54.85
2019-04-16T05:37:52.349Z,55.10
2019-04-16T05:38:24.494Z,55.10
2019-04-16T05:38:56.425Z,55.05
2019-04-16T05:39:28.569Z,54.92
2019-04-16T05:39:59.831Z,54.61
2019-04-16T05:40:34.348Z,54.22
2019-04-16T05:41:13.235Z,54.11
2019-04-16T05:41:37.227Z,54.11
2019-04-16T05:42:08.459Z,53.91
2019-04-16T05:42:39.655Z,53.75
2019-04-16T05:43:10.853Z,53.91
2019-04-16T05:43:42.055Z,53.91
2019-04-16T05:44:13.229Z,53.38
2019-04-16T05:44:44.469Z,53.23
2019-04-16T05:45:15.765Z,53.23
2019-04-16T05:45:46.956Z,53.25
2019-04-16T05:46:19.140Z,52.93
2019-04-16T05:46:50.349Z,52.92
2019-04-16T05:47:21.535Z,52.89
2019-04-16T05:47:52.708Z,53.00
2019-04-16T05:48:23.908Z,52.34
2019-04-16T05:48:55.092Z,52.57
2019-04-16T05:49:26.537Z,52.22
2019-04-16T05:49:58.687Z,51.69
2019-04-16T05:50:30.078Z,51.50
2019-04-16T05:51:01.258Z,51.46
2019-04-16T05:51:32.456Z,51.32
2019-04-16T05:52:04.172Z,51.32
2019-04-16T05:52:36.517Z,51.54
2019-04-16T05:53:09.336Z,51.60
2019-04-16T05:53:42.623Z,51.60
2019-04-16T05:54:21.636Z,51.37
2019-04-16T05:55:09.474Z,51.25
2019-04-16T05:55:49.651Z,51.25
2019-04-16T05:56:24.657Z,50.89
2019-04-16T05:57:13.289Z,50.89
2019-04-16T05:57:46.458Z,50.63
2019-04-16T05:58:17.742Z,50.63
2019-04-16T05:58:48.906Z,50.43
2019-04-16T05:59:20.063Z,50.04
2019-04-16T05:59:52.250Z,50.04
2019-04-16T06:00:25.325Z,50.34
2019-04-16T06:01:01.062Z,50.34
2019-04-16T06:01:46.227Z,50.34
2019-04-16T06:02:26.107Z,50.11
2019-04-16T06:02:57.341Z,50.42
2019-04-16T06:03:28.517Z,50.48
2019-04-16T06:03:59.741Z,50.02
2019-04-16T06:04:30.903Z,50.04
2019-04-16T06:05:03.725Z,49.69
2019-04-16T06:05:34.891Z,49.86
2019-04-16T06:06:06.115Z,50.11
2019-04-16T06:06:37.313Z,50.12
2019-04-16T06:07:08.525Z,49.99
2019-04-16T06:07:39.727Z,49.99
2019-04-16T06:08:11.239Z,49.82
2019-04-16T06:08:42.422Z,49.82
2019-04-16T06:09:13.631Z,49.48
2019-04-16T06:09:45.352Z,49.00
2019-04-16T06:10:18.269Z,49.16
2019-04-16T06:10:50.935Z,49.72
2019-04-16T06:11:29.419Z,49.72
2019-04-16T06:11:55.511Z,49.50
2019-04-16T06:12:28.605Z,49.44
2019-04-16T06:12:59.813Z,49.44
2019-04-16T06:13:35.583Z,49.60
2019-04-16T06:14:16.874Z,49.66
2019-04-16T06:15:01.304Z,49.66
2019-04-16T06:15:37.320Z,49.55
2019-04-16T06:16:16.602Z,49.70
2019-04-16T06:17:06.342Z,49.22
2019-04-16T06:17:55.866Z,49.23
2019-04-16T06:18:37.044Z,48.95
2019-04-16T06:19:15.038Z,49.06
2019-04-16T06:19:51.029Z,49.00
2019-04-16T06:20:24.074Z,49.00
2019-04-16T06:20:55.302Z,48.78
2019-04-16T06:21:29.489Z,48.37
2019-04-16T06:22:06.678Z,48.69
2019-04-16T06:22:51.776Z,48.69
2019-04-16T06:23:41.122Z,48.84
2019-04-16T06:24:12.281Z,48.84
2019-04-16T06:25:08.383Z,48.81
2019-04-16T06:25:41.268Z,48.21
2019-04-16T06:26:16.617Z,48.21
2019-04-16T06:27:07.216Z,48.40
2019-04-16T06:27:40.351Z,48.51
2019-04-16T06:28:20.384Z,48.51
2019-04-16T06:28:55.147Z,48.75
2019-04-16T06:29:25.392Z,48.75
2019-04-16T06:30:05.742Z,48.79
2019-04-16T06:30:38.787Z,48.79
2019-04-16T06:31:11.967Z,48.34
2019-04-16T06:31:45.031Z,48.57
2019-04-16T06:32:16.272Z,48.62
2019-04-16T06:33:01.385Z,48.40
2019-04-16T06:33:32.580Z,48.45
2019-04-16T06:34:24.354Z,48.45
2019-04-16T06:35:02.894Z,48.48
2019-04-16T06:35:43.594Z,48.06
2019-04-16T06:36:22.828Z,47.99
2019-04-16T06:36:58.829Z,47.88
2019-04-16T06:37:48.199Z,47.88
2019-04-16T06:38:21.571Z,47.91
2019-04-16T06:39:03.523Z,48.05
2019-04-16T06:39:38.529Z,48.05
2019-04-16T06:40:11.637Z,48.05
2019-04-16T06:40:48.134Z,47.54
2019-04-16T06:41:41.607Z,47.70
2019-04-16T06:42:06.104Z,47.71
2019-04-16T06:42:39.238Z,47.80
2019-04-16T06:43:28.795Z,47.80
2019-04-16T06:44:03.944Z,47.32
2019-04-16T06:44:36.886Z,47.58
2019-04-16T06:45:12.752Z,47.33
2019-04-16T06:45:45.812Z,47.28
2019-04-16T06:46:27.601Z,47.28
2019-04-16T06:47:00.671Z,47.48
2019-04-16T06:47:33.798Z,47.05
2019-04-16T06:48:13.225Z,46.94
2019-04-16T06:48:47.810Z,46.77
2019-04-16T06:49:20.903Z,46.77
2019-04-16T06:49:57.149Z,46.92
2019-04-16T06:50:32.529Z,46.84
2019-04-16T06:51:01.585Z,46.51
2019-04-16T06:51:50.975Z,46.84
2019-04-16T06:52:37.177Z,46.27
2019-04-16T06:53:08.619Z,45.93
2019-04-16T06:53:44.361Z,45.93
2019-04-16T06:54:34.403Z,45.89
2019-04-16T06:55:19.535Z,45.89
2019-04-16T06:55:56.564Z,46.00
2019-04-16T06:56:30.578Z,46.18
2019-04-16T06:57:20.233Z,45.80
2019-04-16T06:58:09.561Z,45.89
2019-04-16T06:58:51.259Z,45.89
2019-04-16T06:59:17.901Z,45.27
2019-04-16T06:59:59.459Z,45.27
2019-04-16T07:00:39.831Z,45.34
2019-04-16T07:01:17.252Z,45.10
2019-04-16T07:01:56.493Z,45.14
2019-04-16T07:02:44.006Z,44.73
2019-04-16T07:03:33.963Z,44.84
2019-04-16T07:04:07.127Z,45.28
2019-04-16T07:04:46.323Z,45.28
2019-04-16T07:05:35.981Z,45.06
2019-04-16T07:06:25.805Z,44.69
2019-04-16T07:07:15.440Z,44.42
2019-04-16T07:08:06.848Z,44.58
2019-04-16T07:08:41.984Z,44.65
2019-04-16T07:09:13.322Z,44.15
2019-04-16T07:09:46.437Z,44.15
2019-04-16T07:10:19.586Z,44.53